sensor_id;sensor_type;location;lat;lon;timestamp;temperature;humidity
24408;DHT22;12542;50.924;4.516;2022-07-21T00:00:17;20.10;99.90
24408;DHT22;12542;50.924;4.516;2022-07-21T00:02:43;20.10;99.90
24408;DHT22;12542;50.924;4.516;2022-07-21T00:05:09;20.10;99.90
24408;DHT22;12542;50.924;4.516;2022-07-21T00:07:34;20.20;99.90
24408;DHT22;12542;50.924;4.516;2022-07-21T00:10:00;20.20;99.90
24408;DHT22;12542;50.924;4.516;2022-07-21T00:12:25;20.30;99.90
24408;DHT22;12542;50.924;4.516;2022-07-21T00:14:51;20.30;99.90
24408;DHT22;12542;50.924;4.516;2022-07-21T00:17:17;20.40;99.90
24408;DHT22;12542;50.924;4.516;2022-07-21T00:19:42;20.30;99.90
24408;DHT22;12542;50.924;4.516;2022-07-21T00:22:08;20.30;99.90
24408;DHT22;12542;50.924;4.516;2022-07-21T00:24:36;20.30;99.90
24408;DHT22;12542;50.924;4.516;2022-07-21T00:27:03;20.50;99.90
24408;DHT22;12542;50.924;4.516;2022-07-21T00:29:28;20.50;99.90
24408;DHT22;12542;50.924;4.516;2022-07-21T00:31:54;20.50;99.90
24408;DHT22;12542;50.924;4.516;2022-07-21T00:34:24;20.40;99.90
24408;DHT22;12542;50.924;4.516;2022-07-21T00:36:52;20.40;99.90
24408;DHT22;12542;50.924;4.516;2022-07-21T00:39:17;20.60;99.90
24408;DHT22;12542;50.924;4.516;2022-07-21T00:41:43;20.60;99.90
24408;DHT22;12542;50.924;4.516;2022-07-21T00:44:23;20.50;99.90
24408;DHT22;12542;50.924;4.516;2022-07-21T00:46:52;20.40;99.90
24408;DHT22;12542;50.924;4.516;2022-07-21T00:49:18;20.30;99.90
24408;DHT22;12542;50.924;4.516;2022-07-21T00:51:43;20.20;99.90
24408;DHT22;12542;50.924;4.516;2022-07-21T00:54:09;20.30;99.90
24408;DHT22;12542;50.924;4.516;2022-07-21T00:56:35;20.30;99.90
24408;DHT22;12542;50.924;4.516;2022-07-21T00:59:01;20.40;99.90
24408;DHT22;12542;50.924;4.516;2022-07-21T01:01:27;20.50;99.90
24408;DHT22;12542;50.924;4.516;2022-07-21T01:03:53;20.40;99.90
24408;DHT22;12542;50.924;4.516;2022-07-21T01:06:22;20.40;99.90
24408;DHT22;12542;50.924;4.516;2022-07-21T01:08:51;20.40;99.90
24408;DHT22;12542;50.924;4.516;2022-07-21T01:11:17;20.40;99.90
24408;DHT22;12542;50.924;4.516;2022-07-21T01:13:44;20.30;99.90
24408;DHT22;12542;50.924;4.516;2022-07-21T01:16:10;20.40;99.90
24408;DHT22;12542;50.924;4.516;2022-07-21T01:18:36;20.30;99.90
24408;DHT22;12542;50.924;4.516;2022-07-21T01:23:30;20.30;99.90
24408;DHT22;12542;50.924;4.516;2022-07-21T01:25:56;20.30;99.90
24408;DHT22;12542;50.924;4.516;2022-07-21T01:28:24;20.30;99.90
24408;DHT22;12542;50.924;4.516;2022-07-21T01:30:50;20.20;99.90
24408;DHT22;12542;50.924;4.516;2022-07-21T01:33:16;20.10;99.90
24408;DHT22;12542;50.924;4.516;2022-07-21T01:35:42;20.10;99.90
24408;DHT22;12542;50.924;4.516;2022-07-21T01:38:08;20.10;99.90
24408;DHT22;12542;50.924;4.516;2022-07-21T01:41:00;20.30;99.90
24408;DHT22;12542;50.924;4.516;2022-07-21T01:43:44;20.20;99.90
24408;DHT22;12542;50.924;4.516;2022-07-21T01:46:13;20.10;99.90
24408;DHT22;12542;50.924;4.516;2022-07-21T01:48:49;20.10;99.90
24408;DHT22;12542;50.924;4.516;2022-07-21T01:51:15;20.10;99.90
24408;DHT22;12542;50.924;4.516;2022-07-21T01:53:40;20.10;99.90
24408;DHT22;12542;50.924;4.516;2022-07-21T01:56:06;20.00;99.90
24408;DHT22;12542;50.924;4.516;2022-07-21T01:58:33;20.10;99.90
24408;DHT22;12542;50.924;4.516;2022-07-21T02:00:59;20.10;99.90
24408;DHT22;12542;50.924;4.516;2022-07-21T02:03:25;20.00;99.90
24408;DHT22;12542;50.924;4.516;2022-07-21T02:05:50;20.10;99.90
24408;DHT22;12542;50.924;4.516;2022-07-21T02:08:18;20.10;99.90
24408;DHT22;12542;50.924;4.516;2022-07-21T02:10:44;20.20;99.90
24408;DHT22;12542;50.924;4.516;2022-07-21T02:13:10;20.20;99.90
24408;DHT22;12542;50.924;4.516;2022-07-21T02:15:35;20.20;99.90
24408;DHT22;12542;50.924;4.516;2022-07-21T02:18:01;20.30;99.90
24408;DHT22;12542;50.924;4.516;2022-07-21T02:20:29;20.20;99.90
24408;DHT22;12542;50.924;4.516;2022-07-21T02:22:55;20.30;99.90
24408;DHT22;12542;50.924;4.516;2022-07-21T02:25:23;20.10;99.90
24408;DHT22;12542;50.924;4.516;2022-07-21T02:27:52;20.20;99.90
24408;DHT22;12542;50.924;4.516;2022-07-21T02:30:18;20.30;99.90
24408;DHT22;12542;50.924;4.516;2022-07-21T02:32:44;20.20;99.90
24408;DHT22;12542;50.924;4.516;2022-07-21T02:35:10;20.20;99.90
24408;DHT22;12542;50.924;4.516;2022-07-21T02:37:39;20.30;99.90
24408;DHT22;12542;50.924;4.516;2022-07-21T02:40:05;20.30;99.90
24408;DHT22;12542;50.924;4.516;2022-07-21T02:42:34;20.30;99.90
24408;DHT22;12542;50.924;4.516;2022-07-21T02:45:00;20.40;99.90
24408;DHT22;12542;50.924;4.516;2022-07-21T02:47:26;20.40;99.90
24408;DHT22;12542;50.924;4.516;2022-07-21T02:49:54;20.40;99.90
24408;DHT22;12542;50.924;4.516;2022-07-21T02:52:19;20.50;99.90
24408;DHT22;12542;50.924;4.516;2022-07-21T02:54:46;20.40;99.90
24408;DHT22;12542;50.924;4.516;2022-07-21T02:57:12;20.40;99.90
24408;DHT22;12542;50.924;4.516;2022-07-21T02:59:40;20.40;99.90
24408;DHT22;12542;50.924;4.516;2022-07-21T03:02:05;20.30;99.90
24408;DHT22;12542;50.924;4.516;2022-07-21T03:04:33;20.20;99.90
24408;DHT22;12542;50.924;4.516;2022-07-21T03:06:59;20.20;99.90
24408;DHT22;12542;50.924;4.516;2022-07-21T03:09:25;20.10;99.90
24408;DHT22;12542;50.924;4.516;2022-07-21T03:11:51;20.20;99.90
24408;DHT22;12542;50.924;4.516;2022-07-21T03:14:17;20.20;99.90
24408;DHT22;12542;50.924;4.516;2022-07-21T03:16:45;20.10;99.90
24408;DHT22;12542;50.924;4.516;2022-07-21T03:19:11;20.10;99.90
24408;DHT22;12542;50.924;4.516;2022-07-21T03:21:37;20.10;99.90
24408;DHT22;12542;50.924;4.516;2022-07-21T03:24:04;20.10;99.90
24408;DHT22;12542;50.924;4.516;2022-07-21T03:26:30;20.10;99.90
24408;DHT22;12542;50.924;4.516;2022-07-21T03:28:56;20.10;99.90
24408;DHT22;12542;50.924;4.516;2022-07-21T03:31:22;20.00;99.90
24408;DHT22;12542;50.924;4.516;2022-07-21T03:33:52;20.00;99.90
24408;DHT22;12542;50.924;4.516;2022-07-21T03:36:18;20.00;99.90
24408;DHT22;12542;50.924;4.516;2022-07-21T03:38:44;20.10;99.90
24408;DHT22;12542;50.924;4.516;2022-07-21T03:41:14;20.10;99.90
24408;DHT22;12542;50.924;4.516;2022-07-21T03:43:40;20.00;99.90
24408;DHT22;12542;50.924;4.516;2022-07-21T03:46:05;20.00;99.90
24408;DHT22;12542;50.924;4.516;2022-07-21T03:48:31;20.00;99.90
24408;DHT22;12542;50.924;4.516;2022-07-21T03:50:56;20.00;99.90
24408;DHT22;12542;50.924;4.516;2022-07-21T03:53:23;20.10;99.90
24408;DHT22;12542;50.924;4.516;2022-07-21T03:55:49;20.10;99.90
24408;DHT22;12542;50.924;4.516;2022-07-21T03:58:14;20.00;99.90
24408;DHT22;12542;50.924;4.516;2022-07-21T04:00:47;20.00;99.90
24408;DHT22;12542;50.924;4.516;2022-07-21T04:03:15;20.10;99.90
24408;DHT22;12542;50.924;4.516;2022-07-21T04:05:42;20.00;99.90
24408;DHT22;12542;50.924;4.516;2022-07-21T04:08:09;20.20;99.90
24408;DHT22;12542;50.924;4.516;2022-07-21T04:10:38;20.00;99.90
24408;DHT22;12542;50.924;4.516;2022-07-21T04:13:07;20.10;99.90
24408;DHT22;12542;50.924;4.516;2022-07-21T04:15:33;20.10;99.90
24408;DHT22;12542;50.924;4.516;2022-07-21T04:17:58;20.10;99.90
24408;DHT22;12542;50.924;4.516;2022-07-21T04:20:24;20.10;99.90
24408;DHT22;12542;50.924;4.516;2022-07-21T04:22:51;20.10;99.90
24408;DHT22;12542;50.924;4.516;2022-07-21T04:25:18;20.00;99.90
24408;DHT22;12542;50.924;4.516;2022-07-21T04:27:47;20.10;99.90
24408;DHT22;12542;50.924;4.516;2022-07-21T04:30:16;20.10;99.90
24408;DHT22;12542;50.924;4.516;2022-07-21T04:32:42;20.30;99.90
24408;DHT22;12542;50.924;4.516;2022-07-21T04:35:08;20.40;99.90
24408;DHT22;12542;50.924;4.516;2022-07-21T04:37:37;20.30;99.90
24408;DHT22;12542;50.924;4.516;2022-07-21T04:40:04;20.20;99.90
24408;DHT22;12542;50.924;4.516;2022-07-21T04:42:30;20.20;99.90
24408;DHT22;12542;50.924;4.516;2022-07-21T04:44:59;20.20;99.90
24408;DHT22;12542;50.924;4.516;2022-07-21T04:47:24;20.20;99.90
24408;DHT22;12542;50.924;4.516;2022-07-21T04:49:50;20.20;99.90
24408;DHT22;12542;50.924;4.516;2022-07-21T04:52:15;20.10;99.90
24408;DHT22;12542;50.924;4.516;2022-07-21T04:54:41;20.20;99.90
24408;DHT22;12542;50.924;4.516;2022-07-21T04:57:09;20.20;99.90
24408;DHT22;12542;50.924;4.516;2022-07-21T04:59:37;20.20;99.90
24408;DHT22;12542;50.924;4.516;2022-07-21T05:02:04;20.20;99.90
24408;DHT22;12542;50.924;4.516;2022-07-21T05:04:33;20.40;99.90
24408;DHT22;12542;50.924;4.516;2022-07-21T05:06:58;20.40;99.90
24408;DHT22;12542;50.924;4.516;2022-07-21T05:09:24;20.50;99.90
24408;DHT22;12542;50.924;4.516;2022-07-21T05:11:50;20.60;99.90
24408;DHT22;12542;50.924;4.516;2022-07-21T05:14:15;20.70;99.90
24408;DHT22;12542;50.924;4.516;2022-07-21T05:16:43;20.70;99.90
24408;DHT22;12542;50.924;4.516;2022-07-21T05:19:10;20.70;99.90
24408;DHT22;12542;50.924;4.516;2022-07-21T05:21:36;20.60;99.90
24408;DHT22;12542;50.924;4.516;2022-07-21T05:24:01;20.70;99.90
24408;DHT22;12542;50.924;4.516;2022-07-21T05:26:27;20.70;99.90
24408;DHT22;12542;50.924;4.516;2022-07-21T05:28:53;20.90;99.90
24408;DHT22;12542;50.924;4.516;2022-07-21T05:31:19;20.90;99.90
24408;DHT22;12542;50.924;4.516;2022-07-21T05:33:44;20.90;99.90
24408;DHT22;12542;50.924;4.516;2022-07-21T05:36:10;21.00;99.90
24408;DHT22;12542;50.924;4.516;2022-07-21T05:38:36;21.00;99.90
24408;DHT22;12542;50.924;4.516;2022-07-21T05:41:01;21.10;99.90
24408;DHT22;12542;50.924;4.516;2022-07-21T05:43:31;20.90;99.90
24408;DHT22;12542;50.924;4.516;2022-07-21T05:45:58;21.00;99.90
24408;DHT22;12542;50.924;4.516;2022-07-21T05:48:26;20.90;99.90
24408;DHT22;12542;50.924;4.516;2022-07-21T05:50:58;20.90;99.90
24408;DHT22;12542;50.924;4.516;2022-07-21T05:53:24;20.90;99.90
24408;DHT22;12542;50.924;4.516;2022-07-21T05:55:50;20.90;99.90
24408;DHT22;12542;50.924;4.516;2022-07-21T05:58:15;20.70;99.90
24408;DHT22;12542;50.924;4.516;2022-07-21T06:00:44;20.60;99.90
24408;DHT22;12542;50.924;4.516;2022-07-21T06:03:09;20.50;99.90
24408;DHT22;12542;50.924;4.516;2022-07-21T06:05:35;20.60;99.90
24408;DHT22;12542;50.924;4.516;2022-07-21T06:08:01;20.60;99.90
24408;DHT22;12542;50.924;4.516;2022-07-21T06:10:29;20.60;99.90
24408;DHT22;12542;50.924;4.516;2022-07-21T06:12:55;20.50;99.90
24408;DHT22;12542;50.924;4.516;2022-07-21T06:15:21;20.40;99.90
24408;DHT22;12542;50.924;4.516;2022-07-21T06:17:49;20.50;99.90
24408;DHT22;12542;50.924;4.516;2022-07-21T06:20:17;20.40;99.90
24408;DHT22;12542;50.924;4.516;2022-07-21T06:22:43;20.40;99.90
24408;DHT22;12542;50.924;4.516;2022-07-21T06:25:11;20.50;99.90
24408;DHT22;12542;50.924;4.516;2022-07-21T06:27:36;20.40;99.90
24408;DHT22;12542;50.924;4.516;2022-07-21T06:30:03;20.40;99.90
24408;DHT22;12542;50.924;4.516;2022-07-21T06:32:28;20.50;99.90
24408;DHT22;12542;50.924;4.516;2022-07-21T06:34:54;20.50;99.90
24408;DHT22;12542;50.924;4.516;2022-07-21T06:37:22;20.40;99.90
24408;DHT22;12542;50.924;4.516;2022-07-21T06:39:53;20.40;99.90
24408;DHT22;12542;50.924;4.516;2022-07-21T06:42:18;20.40;99.90
24408;DHT22;12542;50.924;4.516;2022-07-21T06:44:46;20.40;99.90
24408;DHT22;12542;50.924;4.516;2022-07-21T06:47:14;20.30;99.90
24408;DHT22;12542;50.924;4.516;2022-07-21T06:49:40;20.30;99.90
24408;DHT22;12542;50.924;4.516;2022-07-21T06:52:08;20.20;99.90
24408;DHT22;12542;50.924;4.516;2022-07-21T06:54:34;20.20;99.90
24408;DHT22;12542;50.924;4.516;2022-07-21T06:57:02;20.00;99.90
24408;DHT22;12542;50.924;4.516;2022-07-21T06:59:31;20.00;99.90
24408;DHT22;12542;50.924;4.516;2022-07-21T07:01:57;20.10;99.90
24408;DHT22;12542;50.924;4.516;2022-07-21T07:04:24;20.10;99.90
24408;DHT22;12542;50.924;4.516;2022-07-21T07:06:50;20.10;99.90
24408;DHT22;12542;50.924;4.516;2022-07-21T07:09:17;20.10;99.90
24408;DHT22;12542;50.924;4.516;2022-07-21T07:11:45;20.20;99.90
24408;DHT22;12542;50.924;4.516;2022-07-21T07:14:13;20.00;99.90
24408;DHT22;12542;50.924;4.516;2022-07-21T07:16:41;20.20;99.90
24408;DHT22;12542;50.924;4.516;2022-07-21T07:19:09;20.10;99.90
24408;DHT22;12542;50.924;4.516;2022-07-21T07:21:34;20.00;99.90
24408;DHT22;12542;50.924;4.516;2022-07-21T07:24:00;20.00;99.90
24408;DHT22;12542;50.924;4.516;2022-07-21T07:26:28;20.00;99.90
24408;DHT22;12542;50.924;4.516;2022-07-21T07:28:53;19.90;99.90
24408;DHT22;12542;50.924;4.516;2022-07-21T07:31:19;20.00;99.90
24408;DHT22;12542;50.924;4.516;2022-07-21T07:33:45;20.00;99.90
24408;DHT22;12542;50.924;4.516;2022-07-21T07:36:10;20.00;99.90
24408;DHT22;12542;50.924;4.516;2022-07-21T07:38:39;20.00;99.90
24408;DHT22;12542;50.924;4.516;2022-07-21T07:41:05;20.00;99.90
24408;DHT22;12542;50.924;4.516;2022-07-21T07:43:33;19.90;99.90
24408;DHT22;12542;50.924;4.516;2022-07-21T07:45:58;20.00;99.90
24408;DHT22;12542;50.924;4.516;2022-07-21T07:48:27;20.00;99.90
24408;DHT22;12542;50.924;4.516;2022-07-21T07:50:53;20.10;99.90
24408;DHT22;12542;50.924;4.516;2022-07-21T07:53:18;20.00;99.90
24408;DHT22;12542;50.924;4.516;2022-07-21T07:55:44;20.00;99.90
24408;DHT22;12542;50.924;4.516;2022-07-21T07:58:09;20.00;99.90
24408;DHT22;12542;50.924;4.516;2022-07-21T08:00:35;20.00;99.90
24408;DHT22;12542;50.924;4.516;2022-07-21T08:03:03;20.00;99.90
24408;DHT22;12542;50.924;4.516;2022-07-21T08:05:31;19.90;99.90
24408;DHT22;12542;50.924;4.516;2022-07-21T08:07:59;19.90;99.90
24408;DHT22;12542;50.924;4.516;2022-07-21T08:10:25;19.90;99.90
24408;DHT22;12542;50.924;4.516;2022-07-21T08:12:55;20.00;99.90
24408;DHT22;12542;50.924;4.516;2022-07-21T08:15:20;20.00;99.90
24408;DHT22;12542;50.924;4.516;2022-07-21T08:17:46;20.10;99.90
24408;DHT22;12542;50.924;4.516;2022-07-21T08:20:12;20.20;99.90
24408;DHT22;12542;50.924;4.516;2022-07-21T08:22:40;20.20;99.90
24408;DHT22;12542;50.924;4.516;2022-07-21T08:25:06;20.30;99.90
24408;DHT22;12542;50.924;4.516;2022-07-21T08:27:32;20.20;99.90
24408;DHT22;12542;50.924;4.516;2022-07-21T08:29:58;20.20;99.90
24408;DHT22;12542;50.924;4.516;2022-07-21T08:32:23;20.10;99.90
24408;DHT22;12542;50.924;4.516;2022-07-21T08:34:51;20.20;99.90
24408;DHT22;12542;50.924;4.516;2022-07-21T08:37:19;20.20;99.90
24408;DHT22;12542;50.924;4.516;2022-07-21T08:39:45;20.20;99.90
24408;DHT22;12542;50.924;4.516;2022-07-21T08:42:13;20.20;99.90
24408;DHT22;12542;50.924;4.516;2022-07-21T08:44:39;20.30;99.90
24408;DHT22;12542;50.924;4.516;2022-07-21T08:47:05;20.20;99.90
24408;DHT22;12542;50.924;4.516;2022-07-21T08:49:35;20.20;99.90
24408;DHT22;12542;50.924;4.516;2022-07-21T08:52:06;20.20;99.90
24408;DHT22;12542;50.924;4.516;2022-07-21T08:54:34;20.20;99.90
24408;DHT22;12542;50.924;4.516;2022-07-21T08:57:00;20.30;99.90
24408;DHT22;12542;50.924;4.516;2022-07-21T08:59:25;20.20;99.90
24408;DHT22;12542;50.924;4.516;2022-07-21T09:01:52;20.30;99.90
24408;DHT22;12542;50.924;4.516;2022-07-21T09:06:52;20.20;99.90
24408;DHT22;12542;50.924;4.516;2022-07-21T09:09:21;20.20;99.90
24408;DHT22;12542;50.924;4.516;2022-07-21T09:11:47;20.30;99.90
24408;DHT22;12542;50.924;4.516;2022-07-21T09:14:15;20.40;99.90
24408;DHT22;12542;50.924;4.516;2022-07-21T09:17:07;20.30;99.90
24408;DHT22;12542;50.924;4.516;2022-07-21T09:19:35;20.20;99.90
24408;DHT22;12542;50.924;4.516;2022-07-21T09:22:11;20.10;99.90
24408;DHT22;12542;50.924;4.516;2022-07-21T09:24:38;20.00;99.90
24408;DHT22;12542;50.924;4.516;2022-07-21T09:27:14;19.90;99.90
24408;DHT22;12542;50.924;4.516;2022-07-21T09:35:03;19.90;99.90
24408;DHT22;12542;50.924;4.516;2022-07-21T09:37:29;19.90;99.90
24408;DHT22;12542;50.924;4.516;2022-07-21T09:40:00;19.90;99.90
24408;DHT22;12542;50.924;4.516;2022-07-21T09:42:33;19.90;99.90
24408;DHT22;12542;50.924;4.516;2022-07-21T09:45:02;19.90;99.90
24408;DHT22;12542;50.924;4.516;2022-07-21T09:47:30;20.00;99.90
24408;DHT22;12542;50.924;4.516;2022-07-21T09:49:57;20.00;99.90
24408;DHT22;12542;50.924;4.516;2022-07-21T09:54:51;19.90;99.90
24408;DHT22;12542;50.924;4.516;2022-07-21T09:57:19;19.90;99.90
24408;DHT22;12542;50.924;4.516;2022-07-21T09:59:46;19.90;99.90
24408;DHT22;12542;50.924;4.516;2022-07-21T10:02:32;20.00;99.90
24408;DHT22;12542;50.924;4.516;2022-07-21T10:05:09;19.90;99.90
24408;DHT22;12542;50.924;4.516;2022-07-21T10:07:43;19.90;99.90
24408;DHT22;12542;50.924;4.516;2022-07-21T10:10:11;19.90;99.90
24408;DHT22;12542;50.924;4.516;2022-07-21T10:12:36;20.00;99.90
24408;DHT22;12542;50.924;4.516;2022-07-21T10:15:03;20.10;99.90
24408;DHT22;12542;50.924;4.516;2022-07-21T10:17:32;20.00;99.90
24408;DHT22;12542;50.924;4.516;2022-07-21T10:20:06;20.10;99.90
24408;DHT22;12542;50.924;4.516;2022-07-21T10:25:40;19.90;99.90
24408;DHT22;12542;50.924;4.516;2022-07-21T10:30:41;20.10;99.90
24408;DHT22;12542;50.924;4.516;2022-07-21T10:33:08;20.10;99.90
24408;DHT22;12542;50.924;4.516;2022-07-21T10:35:34;20.10;99.90
24408;DHT22;12542;50.924;4.516;2022-07-21T10:38:06;20.40;99.90
24408;DHT22;12542;50.924;4.516;2022-07-21T10:40:53;20.60;99.90
24408;DHT22;12542;50.924;4.516;2022-07-21T10:43:37;20.70;99.90
24408;DHT22;12542;50.924;4.516;2022-07-21T10:46:33;20.80;99.90
24408;DHT22;12542;50.924;4.516;2022-07-21T10:49:00;20.80;99.90
24408;DHT22;12542;50.924;4.516;2022-07-21T10:51:26;20.80;99.90
24408;DHT22;12542;50.924;4.516;2022-07-21T10:54:19;20.90;99.90
24408;DHT22;12542;50.924;4.516;2022-07-21T10:56:45;20.90;99.90
24408;DHT22;12542;50.924;4.516;2022-07-21T10:59:11;21.00;99.90
24408;DHT22;12542;50.924;4.516;2022-07-21T11:01:36;21.00;99.90
24408;DHT22;12542;50.924;4.516;2022-07-21T11:04:10;21.00;99.90
24408;DHT22;12542;50.924;4.516;2022-07-21T11:06:38;21.20;99.90
24408;DHT22;12542;50.924;4.516;2022-07-21T11:09:05;21.30;99.90
24408;DHT22;12542;50.924;4.516;2022-07-21T11:11:36;21.50;99.90
24408;DHT22;12542;50.924;4.516;2022-07-21T11:14:16;21.40;99.90
24408;DHT22;12542;50.924;4.516;2022-07-21T11:22:12;21.80;99.90
24408;DHT22;12542;50.924;4.516;2022-07-21T11:24:45;21.80;99.90
24408;DHT22;12542;50.924;4.516;2022-07-21T11:27:18;21.70;99.90
24408;DHT22;12542;50.924;4.516;2022-07-21T11:29:48;21.50;99.90
24408;DHT22;12542;50.924;4.516;2022-07-21T11:32:15;21.10;99.90
24408;DHT22;12542;50.924;4.516;2022-07-21T11:37:07;20.80;99.90
24408;DHT22;12542;50.924;4.516;2022-07-21T11:39:34;20.60;99.90
24408;DHT22;12542;50.924;4.516;2022-07-21T11:42:11;20.20;99.90
24408;DHT22;12542;50.924;4.516;2022-07-21T11:44:41;20.20;99.90
24408;DHT22;12542;50.924;4.516;2022-07-21T11:47:11;20.00;99.90
24408;DHT22;12542;50.924;4.516;2022-07-21T11:49:38;19.90;99.90
24408;DHT22;12542;50.924;4.516;2022-07-21T11:52:14;19.90;99.90
24408;DHT22;12542;50.924;4.516;2022-07-21T11:54:50;20.00;99.90
24408;DHT22;12542;50.924;4.516;2022-07-21T11:57:19;20.10;99.90
24408;DHT22;12542;50.924;4.516;2022-07-21T11:59:45;20.20;99.90
24408;DHT22;12542;50.924;4.516;2022-07-21T12:02:19;20.40;99.90
24408;DHT22;12542;50.924;4.516;2022-07-21T12:04:49;20.50;99.90
24408;DHT22;12542;50.924;4.516;2022-07-21T12:12:35;20.60;99.90
24408;DHT22;12542;50.924;4.516;2022-07-21T12:15:17;20.50;99.90
24408;DHT22;12542;50.924;4.516;2022-07-21T12:18:01;20.30;99.90
24408;DHT22;12542;50.924;4.516;2022-07-21T12:20:41;20.40;99.90
24408;DHT22;12542;50.924;4.516;2022-07-21T12:23:27;20.30;99.90
24408;DHT22;12542;50.924;4.516;2022-07-21T12:25:58;20.10;99.90
24408;DHT22;12542;50.924;4.516;2022-07-21T12:28:49;20.00;99.90
24408;DHT22;12542;50.924;4.516;2022-07-21T12:31:18;20.20;99.90
24408;DHT22;12542;50.924;4.516;2022-07-21T12:33:50;20.20;99.90
24408;DHT22;12542;50.924;4.516;2022-07-21T12:36:19;20.20;99.90
24408;DHT22;12542;50.924;4.516;2022-07-21T12:38:47;20.20;99.90
24408;DHT22;12542;50.924;4.516;2022-07-21T12:41:15;20.20;99.90
24408;DHT22;12542;50.924;4.516;2022-07-21T12:43:41;20.00;99.90
24408;DHT22;12542;50.924;4.516;2022-07-21T12:46:14;19.90;99.90
24408;DHT22;12542;50.924;4.516;2022-07-21T12:48:43;20.00;99.90
24408;DHT22;12542;50.924;4.516;2022-07-21T12:53:41;20.00;99.90
24408;DHT22;12542;50.924;4.516;2022-07-21T12:56:08;20.10;99.90
24408;DHT22;12542;50.924;4.516;2022-07-21T12:58:34;20.20;99.90
24408;DHT22;12542;50.924;4.516;2022-07-21T13:01:00;20.10;99.90
24408;DHT22;12542;50.924;4.516;2022-07-21T13:03:30;20.30;99.90
24408;DHT22;12542;50.924;4.516;2022-07-21T13:06:00;20.30;99.90
24408;DHT22;12542;50.924;4.516;2022-07-21T13:08:26;20.20;99.90
24408;DHT22;12542;50.924;4.516;2022-07-21T13:10:51;20.30;99.90
24408;DHT22;12542;50.924;4.516;2022-07-21T13:13:19;20.50;99.90
24408;DHT22;12542;50.924;4.516;2022-07-21T13:15:45;20.70;99.90
24408;DHT22;12542;50.924;4.516;2022-07-21T13:18:11;21.00;99.90
24408;DHT22;12542;50.924;4.516;2022-07-21T13:20:36;21.30;99.90
24408;DHT22;12542;50.924;4.516;2022-07-21T13:23:02;21.30;99.90
24408;DHT22;12542;50.924;4.516;2022-07-21T13:25:28;21.20;99.90
24408;DHT22;12542;50.924;4.516;2022-07-21T13:27:54;21.20;99.90
24408;DHT22;12542;50.924;4.516;2022-07-21T13:30:20;21.30;99.90
24408;DHT22;12542;50.924;4.516;2022-07-21T13:32:46;21.20;99.90
24408;DHT22;12542;50.924;4.516;2022-07-21T13:35:12;21.10;99.90
24408;DHT22;12542;50.924;4.516;2022-07-21T13:37:37;21.00;99.90
24408;DHT22;12542;50.924;4.516;2022-07-21T13:40:08;21.00;99.90
24408;DHT22;12542;50.924;4.516;2022-07-21T13:42:34;20.80;99.90
24408;DHT22;12542;50.924;4.516;2022-07-21T13:45:00;20.50;99.90
24408;DHT22;12542;50.924;4.516;2022-07-21T13:47:25;20.50;99.90
24408;DHT22;12542;50.924;4.516;2022-07-21T13:49:51;20.40;99.90
24408;DHT22;12542;50.924;4.516;2022-07-21T13:52:19;20.20;99.90
24408;DHT22;12542;50.924;4.516;2022-07-21T13:54:47;20.30;99.90
24408;DHT22;12542;50.924;4.516;2022-07-21T13:57:13;20.20;99.90
24408;DHT22;12542;50.924;4.516;2022-07-21T13:59:39;20.30;99.90
24408;DHT22;12542;50.924;4.516;2022-07-21T14:02:05;20.40;99.90
24408;DHT22;12542;50.924;4.516;2022-07-21T14:04:31;20.60;99.90
24408;DHT22;12542;50.924;4.516;2022-07-21T14:06:56;20.80;99.90
24408;DHT22;12542;50.924;4.516;2022-07-21T14:09:24;20.90;99.90
24408;DHT22;12542;50.924;4.516;2022-07-21T14:11:52;21.00;99.90
24408;DHT22;12542;50.924;4.516;2022-07-21T14:14:18;20.80;99.90
24408;DHT22;12542;50.924;4.516;2022-07-21T14:16:47;21.00;99.90
24408;DHT22;12542;50.924;4.516;2022-07-21T14:19:14;21.00;99.90
24408;DHT22;12542;50.924;4.516;2022-07-21T14:21:42;21.00;99.90
24408;DHT22;12542;50.924;4.516;2022-07-21T14:24:11;21.10;99.90
24408;DHT22;12542;50.924;4.516;2022-07-21T14:26:58;21.20;99.90
24408;DHT22;12542;50.924;4.516;2022-07-21T14:29:23;21.20;99.90
24408;DHT22;12542;50.924;4.516;2022-07-21T14:31:49;21.20;99.90
24408;DHT22;12542;50.924;4.516;2022-07-21T14:34:17;21.10;99.90
24408;DHT22;12542;50.924;4.516;2022-07-21T14:36:43;21.00;99.90
24408;DHT22;12542;50.924;4.516;2022-07-21T14:39:09;21.00;99.90
24408;DHT22;12542;50.924;4.516;2022-07-21T14:41:36;20.80;99.90
24408;DHT22;12542;50.924;4.516;2022-07-21T14:44:02;20.70;99.90
24408;DHT22;12542;50.924;4.516;2022-07-21T14:46:27;20.60;99.90
24408;DHT22;12542;50.924;4.516;2022-07-21T14:48:53;20.50;99.90
24408;DHT22;12542;50.924;4.516;2022-07-21T14:51:18;20.30;99.90
24408;DHT22;12542;50.924;4.516;2022-07-21T14:53:49;20.20;99.90
24408;DHT22;12542;50.924;4.516;2022-07-21T14:56:15;20.10;99.90
24408;DHT22;12542;50.924;4.516;2022-07-21T14:58:43;20.10;99.90
24408;DHT22;12542;50.924;4.516;2022-07-21T15:01:08;20.30;99.90
24408;DHT22;12542;50.924;4.516;2022-07-21T15:03:38;20.30;99.90
24408;DHT22;12542;50.924;4.516;2022-07-21T15:06:05;20.40;99.90
24408;DHT22;12542;50.924;4.516;2022-07-21T15:08:31;20.80;99.90
24408;DHT22;12542;50.924;4.516;2022-07-21T15:10:57;21.00;99.90
24408;DHT22;12542;50.924;4.516;2022-07-21T15:13:23;21.20;99.90
24408;DHT22;12542;50.924;4.516;2022-07-21T15:15:53;21.20;99.90
24408;DHT22;12542;50.924;4.516;2022-07-21T15:18:18;21.10;99.90
24408;DHT22;12542;50.924;4.516;2022-07-21T15:20:45;21.00;99.90
24408;DHT22;12542;50.924;4.516;2022-07-21T15:23:11;20.90;99.90
24408;DHT22;12542;50.924;4.516;2022-07-21T15:25:40;20.80;99.90
24408;DHT22;12542;50.924;4.516;2022-07-21T15:28:07;20.80;99.90
24408;DHT22;12542;50.924;4.516;2022-07-21T15:30:33;20.80;99.90
24408;DHT22;12542;50.924;4.516;2022-07-21T15:32:59;20.90;99.90
24408;DHT22;12542;50.924;4.516;2022-07-21T15:35:25;20.90;99.90
24408;DHT22;12542;50.924;4.516;2022-07-21T15:37:51;21.00;99.90
24408;DHT22;12542;50.924;4.516;2022-07-21T15:40:19;21.20;99.90
24408;DHT22;12542;50.924;4.516;2022-07-21T15:42:47;21.20;99.90
24408;DHT22;12542;50.924;4.516;2022-07-21T15:45:13;21.30;99.90
24408;DHT22;12542;50.924;4.516;2022-07-21T15:47:39;21.50;99.90
24408;DHT22;12542;50.924;4.516;2022-07-21T15:50:07;21.60;99.90
24408;DHT22;12542;50.924;4.516;2022-07-21T15:52:36;21.70;99.90
24408;DHT22;12542;50.924;4.516;2022-07-21T15:55:07;21.70;99.90
24408;DHT22;12542;50.924;4.516;2022-07-21T15:57:33;21.60;99.90
24408;DHT22;12542;50.924;4.516;2022-07-21T16:00:02;21.60;99.90
24408;DHT22;12542;50.924;4.516;2022-07-21T16:02:28;21.50;99.90
24408;DHT22;12542;50.924;4.516;2022-07-21T16:04:54;21.50;99.90
24408;DHT22;12542;50.924;4.516;2022-07-21T16:07:20;21.40;99.90